This is the latest recevied weather packets stored in our database for station/object K3CHZ. If no packets are shown the sender has not sent any weather packets the latest 10 day(s).
| Time | Temp. | Humidity | Pressure | Rain* | Wind** | Luminosity | Snow |
|---|---|---|---|---|---|---|---|
| 1777588340 | 15.56° C | 54% | 1009.8 hPa | 0 mm | - | - | - |
| 1777588040 | 16.11° C | 53% | 1009.8 hPa | 0 mm | - | - | - |
| 1777587740 | 15.56° C | 55% | 1009.7 hPa | 0 mm | - | - | - |
| 1777587440 | 15.56° C | 54% | 1009.8 hPa | 0 mm | - | - | - |
| 1777587139 | 16.11° C | 54% | 1009.8 hPa | 0 mm | - | - | - |
| 1777586840 | 16.11° C | 54% | 1009.7 hPa | 0 mm | - | - | - |
| 1777586539 | 16.11° C | 53% | 1009.8 hPa | 0 mm | - | - | - |
| 1777586240 | 16.11° C | 54% | 1009.6 hPa | 0 mm | - | - | - |
| 1777585939 | 16.11° C | 53% | 1009.5 hPa | 0 mm | - | - | - |
| 1777585641 | 16.11° C | 52% | 1009.5 hPa | 0 mm | - | - | - |
| 1777585340 | 16.11° C | 52% | 1009.5 hPa | 0 mm | - | - | - |
| 1777585041 | 16.11° C | 53% | 1009.3 hPa | 0 mm | - | - | - |
| 1777584740 | 16.67° C | 50% | 1009.3 hPa | 0 mm | - | - | - |
| 1777584443 | 16.67° C | 51% | 1009.1 hPa | 0 mm | - | - | - |
| 1777584144 | 16.67° C | 52% | 1009 hPa | 0 mm | - | - | - |
| 1777583846 | 16.67° C | 50% | 1009 hPa | 0 mm | - | - | - |
| 1777583543 | 16.67° C | 49% | 1008.9 hPa | 0 mm | - | - | - |
| 1777583243 | 16.67° C | 48% | 1008.9 hPa | 0 mm | - | - | - |
| 1777582943 | 17.22° C | 49% | 1008.7 hPa | 0 mm | - | - | - |
| 1777582643 | 17.22° C | 46% | 1008.7 hPa | 0 mm | - | - | - |
| 1777582343 | 17.22° C | 47% | 1008.6 hPa | 0 mm | - | - | - |
| 1777582044 | 17.22° C | 46% | 1008.5 hPa | 0 mm | - | - | - |
| 1777581744 | 17.78° C | 44% | 1008.5 hPa | 0 mm | - | - | - |
| 1777581445 | 17.78° C | 44% | 1008.5 hPa | 0 mm | - | - | - |
| 1777581144 | 17.78° C | 45% | 1008.4 hPa | 0 mm | - | - | - |
* Rain latest hour (hover to see other rain measurements)
** Current wind speed in m/s (hover to see current wind gust speed)